Flight Track Log - Related Links

Times and Time Zones

All times are in EDT time to prevent confusion due to time zone crossing. See the LYM613 flight status page for this flight to view local times or setup timezone preferences in your user account.

Time Position Orientation Groundspeed Altitude Reporting Facility
EDT Latitude Longitude Course Direction KTS MPH feet Rate Location/Type
Mon 08:42:25 AM 41.6536 -109.0786 North 250 288 11,100  Level Denver Center
Mon 08:43:28 AM 41.6439 -108.9819 98° East 279 321 14,500 3,024 Climbing Salt Lake Center
Mon 08:44:00 AM 41.3063 -108.4290 114° Southeast  Level Estimated
Mon 08:44:28 AM 41.5992 -108.8658 117° Southeast 310 357 17,300  Level Salt Lake Center
Mon 08:45:00 AM 41.2579 -108.3235 116° Southeast  Level Estimated
Mon 08:45:29 AM 41.5644 -108.7533 112° Southeast 335 386 19,600  Level Salt Lake Center
Mon 08:46:00 AM 41.2095 -108.2182 116° Southeast  Level Estimated
Mon 08:46:29 AM 41.5244 -108.6397 115° Southeast 348 400 21,800  Level Salt Lake Center
Mon 08:47:30 AM 41.4853 -108.5250 114° Southeast 352 405 24,000 2,115 Climbing Salt Lake Center
Mon 08:48:31 AM 41.4381 -108.3911 115° Southeast 357 411 26,100 1,934 Climbing Salt Lake Center
Mon 08:49:31 AM 41.3967 -108.2703 115° Southeast 367 422 27,900 1,835 Climbing Denver Center
Mon 08:50:32 AM 41.3569 -108.1572 115° Southeast 356 410 29,800 1,525 Climbing Denver Center
Mon 08:51:33 AM 41.3097 -108.0242 115° Southeast 355 409 31,000 590 Climbing Denver Center
Mon 08:52:34 AM 41.2669 -107.9031 115° Southeast 370 426 31,000  Level Denver Center
Mon 08:53:35 AM 41.2233 -107.7786 115° Southeast 384 442 31,000 49 Level Denver Center
Mon 08:54:36 AM 41.1722 -107.6383 116° Southeast 381 438 31,100  Climbing Denver Center
Mon 08:55:37 AM 41.1300 -107.5189 115° Southeast 375 432 31,000 -50 Descending Denver Center
Mon 08:56:37 AM 41.0808 -107.3828 116° Southeast 369 425 31,000  Level Denver Center
Mon 08:57:38 AM 41.0383 -107.2669 116° Southeast 367 422 31,000  Level Denver Center
Mon 08:58:39 AM 40.9978 -107.1503 115° Southeast 366 421 31,000  Level Denver Center
Mon 08:59:40 AM 40.9472 -107.0153 116° Southeast 366 421 31,000  Level Denver Center
Mon 09:00:41 AM 40.9047 -106.8986 116° Southeast 366 421 31,000  Level Denver Center
Mon 09:01:42 AM 40.8631 -106.7831 115° Southeast 366 421 31,000  Level Denver Center
Mon 09:02:43 AM 40.8125 -106.6472 116° Southeast 368 423 31,000  Level Denver Center
Mon 09:03:44 AM 40.7694 -106.5306 116° Southeast 370 426 31,000  Level Denver Center
Mon 09:04:44 AM 40.7261 -106.4122 116° Southeast 372 428 31,000  Level Denver Center
Mon 09:05:45 AM 40.6761 -106.2778 116° Southeast 369 425 31,000 -295 Level Denver Center
Mon 09:06:46 AM 40.6325 -106.1619 116° Southeast 368 423 30,400 -1,180 Descending Denver Center
Mon 09:07:47 AM 40.5889 -106.0456 116° Southeast 362 417 28,600 -1,770 Descending Denver Center
Mon 09:08:48 AM 40.5444 -105.9311 117° Southeast 356 410 26,800 -1,820 Descending Denver Center
Mon 09:09:49 AM 40.5014 -105.8142 116° Southeast 355 409 24,900 -1,869 Descending Denver Center
Mon 09:10:50 AM 40.4553 -105.6975 117° Southeast 358 412 23,000 -1,918 Descending Denver Center
Mon 09:11:51 AM 40.4106 -105.5792 116° Southeast 362 417 21,000 -1,918 Descending Denver Center
Mon 09:12:52 AM 40.3617 -105.4569 118° Southeast 359 413 19,100 -2,033 Descending Denver Center
Mon 09:13:52 AM 40.2822 -105.3453 133° Southeast 387 445 16,900 -1,686 Descending Denver Center
Mon 09:14:53 AM 40.2067 -105.2578 138° Southeast 367 422 15,700 -1,672 Descending Denver Center
Mon 09:15:54 AM 40.1097 -105.1981 155° Southeast 391 450 13,500 -2,016 Descending Denver Center
Mon 09:16:55 AM 40.0161 -105.1372 154° Southeast 382 440 11,600 -1,672 Descending Denver Center
Mon 09:17:56 AM 39.9322 -105.0853 155° Southeast 341 392 10,100 -1,230 Descending Denver Center
Mon 09:18:57 AM 39.8506 -105.0336 154° Southeast 308 354 9,100 -590 Descending Denver Center
Mon 09:19:58 AM 39.7728 -104.9850 154° Southeast 310 357 8,900 -197 Descending Denver Center
Mon 09:20:59 AM 39.6947 -104.9417 157° South 301 346 8,700 -295 Descending Denver Center
Mon 09:22:00 AM 39.6175 -104.9244 170° South 284 327 8,300 -393 Descending Denver Center
Mon 09:23:01 AM 39.5347 -104.9186 177° South 273 314 7,900 -443 Descending Denver Center
Mon 09:24:02 AM 39.4950 -104.8711 137° Southeast 223 257 7,400 -639 Descending Denver Center
Mon 09:25:03 AM 39.5269 -104.8486 29° Northeast 138 159 6,600 -738 Descending Denver Center
Mon 09:26:04 AM 39.5614 -104.8503 358° North 127 146 5,900 -689 Descending Denver Center
Mon 09:28:00 AM 39.5667 -104.8333 North  Level FlightAware Approximate
Mon 09:35:00 AM 39.5701 -104.8493 North  Level Estimated

Login

Don't have an account? Register now (free) for customized features, flight alerts, and more!